Time;durP1;ratioP1;P1;durP2;ratioP2;P2;SDS_P1;SDS_P2;PMS_P1;PMS_P2;Temp;Humidity;BMP_temperature;BMP_pressure;BME280_temperature;BME280_humidity;BME280_pressure;Samples;Min_cycle;Max_cycle;Signal;HPM_P1;HPM_P2
2022/09/19 00:02:14;;;;;;;;;;;;;;;9.51;65.48;95338.72;5055606;28;1087;-57
2022/09/19 00:04:40;;;;;;;;;;;;;;;9.65;64.67;95332.00;5055470;28;1041;-56
2022/09/19 00:07:06;;;;;;;;;;;;;;;9.70;64.35;95331.56;5055539;28;1985;-57
2022/09/19 00:09:32;;;;;;;;;;;;;;;9.71;64.62;95330.56;5055288;28;1040;-57
2022/09/19 00:11:59;;;;;;;;;;;;;;;9.58;64.81;95321.13;5055355;28;1043;-57
2022/09/19 00:14:27;;;;;;;;;;;;;;;9.49;64.89;95324.69;5055190;28;1228;-57
2022/09/19 00:16:54;;;;;;;;;;;;;;;9.42;64.95;95314.75;5055533;28;948;-57
2022/09/19 00:19:20;;;;;;;;;;;;;;;9.27;65.82;95320.59;5055062;28;1103;-57
2022/09/19 00:21:47;;;;;;;;;;;;;;;9.34;65.27;95323.50;5055268;28;1120;-56
2022/09/19 00:27:03;;;;;;;;;;;;;;;9.31;65.26;95324.63;5055320;28;1938;-57
2022/09/19 00:29:31;;;;;;;;;;;;;;;9.31;65.19;95313.13;5054935;28;1083;-56
2022/09/19 00:31:57;;;;;;;;;;;;;;;9.31;65.44;95313.97;5055161;28;1015;-56
2022/09/19 00:34:23;;;;;;;;;;;;;;;9.27;65.50;95317.91;5054961;28;961;-56
2022/09/19 00:36:49;;;;;;;;;;;;;;;9.04;66.12;95321.97;5054922;28;1034;-56
2022/09/19 00:39:16;;;;;;;;;;;;;;;9.04;65.68;95322.81;5055192;28;1088;-56
2022/09/19 00:41:42;;;;;;;;;;;;;;;8.79;66.37;95319.81;5055033;28;1048;-57
2022/09/19 00:44:26;;;;;;;;;;;;;;;8.75;66.29;95323.78;5054521;28;976;-57
2022/09/19 00:47:09;;;;;;;;;;;;;;;8.76;65.97;95319.28;5054616;28;1983;-57
2022/09/19 00:49:37;;;;;;;;;;;;;;;8.85;66.33;95321.06;5054362;28;1100;-57
2022/09/19 00:52:07;;;;;;;;;;;;;;;8.93;66.14;95315.00;5054649;28;1101;-57
2022/09/19 00:54:35;;;;;;;;;;;;;;;9.00;65.38;95313.44;5053506;28;1021;-57
2022/09/19 00:57:03;;;;;;;;;;;;;;;9.07;65.32;95313.66;5054630;28;1007;-57
2022/09/19 00:59:31;;;;;;;;;;;;;;;8.89;65.49;95314.44;5037837;28;1319;-57
2022/09/19 01:01:58;;;;;;;;;;;;;;;8.84;65.71;95310.53;5034510;28;1198;-57
2022/09/19 01:04:29;;;;;;;;;;;;;;;8.82;65.27;95313.38;5034332;28;1031;-57
2022/09/19 01:07:13;;;;;;;;;;;;;;;8.66;65.39;95318.47;5034375;28;1906;-57
2022/09/19 01:09:49;;;;;;;;;;;;;;;8.61;65.28;95297.56;5034418;28;1027;-56
2022/09/19 01:12:38;;;;;;;;;;;;;;;8.65;65.80;95316.78;5034518;28;965;-56
2022/09/19 01:15:09;;;;;;;;;;;;;;;8.78;65.21;95309.31;5034201;28;1129;-57
2022/09/19 01:17:45;;;;;;;;;;;;;;;8.88;65.14;95306.59;5034475;28;964;-57
2022/09/19 01:20:12;;;;;;;;;;;;;;;8.84;65.35;95308.75;5034206;28;968;-57
2022/09/19 01:22:43;;;;;;;;;;;;;;;8.70;64.83;95310.03;5034306;28;965;-56
2022/09/19 01:25:22;;;;;;;;;;;;;;;8.65;65.40;95306.13;5034006;28;1040;-57
2022/09/19 01:27:51;;;;;;;;;;;;;;;8.61;65.35;95305.56;5034225;28;1914;-57
2022/09/19 01:30:17;;;;;;;;;;;;;;;8.71;65.39;95303.72;5034089;28;1023;-56
2022/09/19 01:33:10;;;;;;;;;;;;;;;8.82;64.62;95307.19;5034049;28;996;-57
2022/09/19 01:35:38;;;;;;;;;;;;;;;8.69;65.23;95300.38;5033411;28;1070;-57
2022/09/19 01:38:07;;;;;;;;;;;;;;;8.56;65.78;95310.50;5034108;28;1044;-57
2022/09/19 01:40:34;;;;;;;;;;;;;;;8.56;65.15;95303.34;5034088;28;1024;-57
2022/09/19 01:43:00;;;;;;;;;;;;;;;8.56;65.18;95292.69;5033729;28;1083;-56
2022/09/19 01:45:38;;;;;;;;;;;;;;;8.40;65.18;95292.41;5033699;28;1035;-56
2022/09/19 01:48:14;;;;;;;;;;;;;;;8.13;66.04;95291.34;5033689;28;1914;-57
2022/09/19 01:51:00;;;;;;;;;;;;;;;8.23;66.01;95288.66;5033718;28;1039;-56
2022/09/19 01:53:33;;;;;;;;;;;;;;;8.37;65.57;95280.22;5033720;28;1114;-57
2022/09/19 01:56:09;;;;;;;;;;;;;;;8.48;65.70;95281.06;5031708;28;999;-56
2022/09/19 01:58:41;;;;;;;;;;;;;;;8.66;65.50;95271.34;5042752;28;1245;-56
2022/09/19 02:01:10;;;;;;;;;;;;;;;8.70;65.08;95282.53;5053314;28;1020;-56
2022/09/19 02:03:42;;;;;;;;;;;;;;;8.73;64.90;95277.75;5053631;28;1025;-56
2022/09/19 02:06:18;;;;;;;;;;;;;;;8.70;64.30;95272.72;5053378;28;970;-57
2022/09/19 02:08:47;;;;;;;;;;;;;;;8.61;64.25;95284.25;5053259;28;1076;-56
2022/09/19 02:11:16;;;;;;;;;;;;;;;8.58;64.29;95281.91;5053077;28;1083;-56
2022/09/19 02:13:45;;;;;;;;;;;;;;;8.51;64.85;95280.78;5053402;28;1030;-56
2022/09/19 02:16:18;;;;;;;;;;;;;;;8.65;65.25;95276.81;5053260;28;1010;-57
2022/09/19 02:18:53;;;;;;;;;;;;;;;8.58;64.96;95282.72;5053353;28;1053;-57
2022/09/19 02:21:23;;;;;;;;;;;;;;;8.51;64.99;95288.78;5053170;28;1061;-57
2022/09/19 02:23:52;;;;;;;;;;;;;;;8.47;65.59;95282.91;5053160;28;1049;-57
2022/09/19 02:26:20;;;;;;;;;;;;;;;8.24;65.33;95285.03;5052964;28;1981;-57
2022/09/19 02:28:49;;;;;;;;;;;;;;;8.16;65.93;95284.91;5053311;28;988;-56
2022/09/19 02:31:16;;;;;;;;;;;;;;;8.29;65.31;95284.59;5053071;28;992;-57
2022/09/19 02:33:45;;;;;;;;;;;;;;;8.35;64.90;95282.19;5053110;28;944;-57
2022/09/19 02:36:24;;;;;;;;;;;;;;;8.38;64.58;95281.94;5052923;28;1061;-57
2022/09/19 02:38:59;;;;;;;;;;;;;;;8.46;64.88;95291.03;5052969;28;1095;-57
2022/09/19 02:41:36;;;;;;;;;;;;;;;8.36;65.15;95281.19;5053074;28;1004;-56
2022/09/19 02:44:08;;;;;;;;;;;;;;;8.28;65.58;95285.59;5052944;28;1025;-57
2022/09/19 02:46:38;;;;;;;;;;;;;;;8.18;65.32;95288.28;5052691;28;1983;-56
2022/09/19 02:49:16;;;;;;;;;;;;;;;8.30;65.33;95281.78;5052956;28;1084;-57
2022/09/19 02:51:54;;;;;;;;;;;;;;;8.36;65.10;95275.88;5052692;28;1088;-56
2022/09/19 02:54:28;;;;;;;;;;;;;;;8.42;64.53;95276.31;5052885;28;1113;-56
2022/09/19 02:56:57;;;;;;;;;;;;;;;8.43;63.81;95278.03;5053224;28;977;-57
2022/09/19 02:59:28;;;;;;;;;;;;;;;8.23;64.29;95280.69;5036997;28;1248;-56
2022/09/19 03:02:00;;;;;;;;;;;;;;;8.09;64.29;95281.13;5032965;28;1007;-56
2022/09/19 03:04:29;;;;;;;;;;;;;;;7.82;65.53;95272.06;5033007;28;1024;-56
2022/09/19 03:06:59;;;;;;;;;;;;;;;7.98;65.15;95277.63;5034334;28;1910;-57
2022/09/19 03:09:28;;;;;;;;;;;;;;;7.93;65.08;95274.56;5036718;28;1004;-57
2022/09/19 03:11:58;;;;;;;;;;;;;;;7.82;65.57;95266.75;5036397;28;1032;-56
2022/09/19 03:14:24;;;;;;;;;;;;;;;7.92;66.10;95262.22;5036632;28;1036;-57
2022/09/19 03:16:56;;;;;;;;;;;;;;;8.11;65.95;95265.84;5036327;28;1088;-56
2022/09/19 03:19:23;;;;;;;;;;;;;;;8.24;65.74;95265.56;5036552;28;1021;-56
2022/09/19 03:21:51;;;;;;;;;;;;;;;8.39;64.72;95261.44;5036208;28;1032;-57
2022/09/19 03:24:17;;;;;;;;;;;;;;;8.43;64.25;95268.19;5036414;28;976;-56
2022/09/19 03:26:44;;;;;;;;;;;;;;;8.26;64.09;95269.75;5036075;28;1910;-57
2022/09/19 03:29:11;;;;;;;;;;;;;;;8.26;64.32;95275.06;5036561;28;1019;-57
2022/09/19 03:31:37;;;;;;;;;;;;;;;8.12;64.75;95264.84;5036276;28;976;-56
2022/09/19 03:34:03;;;;;;;;;;;;;;;7.88;65.53;95265.34;5036318;28;1040;-56
2022/09/19 03:36:30;;;;;;;;;;;;;;;7.68;66.02;95269.81;5036036;28;1036;-56
2022/09/19 03:39:01;;;;;;;;;;;;;;;7.75;65.37;95263.78;5036076;28;1031;-56
2022/09/19 03:41:30;;;;;;;;;;;;;;;7.77;65.29;95259.16;5036282;28;924;-57
2022/09/19 03:44:01;;;;;;;;;;;;;;;7.84;65.61;95259.44;5036262;28;1043;-56
2022/09/19 03:46:28;;;;;;;;;;;;;;;7.87;65.07;95263.63;5036025;28;1985;-58
2022/09/19 03:48:54;;;;;;;;;;;;;;;7.96;64.81;95252.16;5035817;28;1040;-58
2022/09/19 03:51:20;;;;;;;;;;;;;;;7.95;64.93;95253.16;5036360;28;1063;-58
2022/09/19 03:53:46;;;;;;;;;;;;;;;7.95;64.56;95253.97;5035609;28;1098;-58
2022/09/19 03:56:13;;;;;;;;;;;;;;;7.88;64.77;95252.84;5036014;28;1063;-58
2022/09/19 03:58:40;;;;;;;;;;;;;;;7.87;64.53;95248.50;5045555;28;1261;-58
2022/09/19 04:01:06;;;;;;;;;;;;;;;7.83;64.53;95257.75;5055693;28;1044;-58
2022/09/19 04:03:33;;;;;;;;;;;;;;;7.79;65.20;95245.72;5055541;28;974;-58
2022/09/19 04:06:02;;;;;;;;;;;;;;;7.80;65.43;95244.75;5055506;28;1064;-59
2022/09/19 04:08:28;;;;;;;;;;;;;;;7.86;64.88;95243.34;5055262;28;1902;-58
2022/09/19 04:10:54;;;;;;;;;;;;;;;7.74;65.49;95247.94;5055644;28;1012;-58
2022/09/19 04:13:21;;;;;;;;;;;;;;;7.73;65.01;95252.44;5055417;28;962;-58
2022/09/19 04:15:51;;;;;;;;;;;;;;;7.76;64.80;95248.69;5055565;28;1068;-58
2022/09/19 04:18:18;;;;;;;;;;;;;;;7.69;64.92;95261.69;5053444;28;976;-58
2022/09/19 04:20:45;;;;;;;;;;;;;;;7.65;65.05;95262.97;5055146;28;1027;-58
2022/09/19 04:23:13;;;;;;;;;;;;;;;7.55;65.42;95264.75;5055329;28;960;-58
2022/09/19 04:25:39;;;;;;;;;;;;;;;7.63;64.71;95264.94;5055231;28;1025;-59
2022/09/19 04:28:07;;;;;;;;;;;;;;;7.70;65.15;95265.19;5055059;28;1902;-58
2022/09/19 04:30:35;;;;;;;;;;;;;;;7.47;66.22;95261.97;5055273;28;1020;-58
2022/09/19 04:33:03;;;;;;;;;;;;;;;7.22;66.39;95270.34;5054878;28;955;-59
2022/09/19 04:35:30;;;;;;;;;;;;;;;7.11;67.06;95270.47;5055002;28;1031;-58
2022/09/19 04:37:56;;;;;;;;;;;;;;;7.21;66.54;95265.19;5054696;28;1013;-58
2022/09/19 04:40:22;;;;;;;;;;;;;;;7.33;66.49;95257.91;5055125;28;1054;-58
2022/09/19 04:42:48;;;;;;;;;;;;;;;7.53;65.96;95264.94;5054741;28;980;-59
2022/09/19 04:45:20;;;;;;;;;;;;;;;7.59;66.22;95256.38;5054927;28;1039;-59
2022/09/19 04:47:49;;;;;;;;;;;;;;;7.68;66.65;95265.31;5054472;28;1999;-58
2022/09/19 04:50:17;;;;;;;;;;;;;;;7.69;67.14;95263.53;5055018;28;1018;-58
2022/09/19 04:52:43;;;;;;;;;;;;;;;7.68;67.83;95257.34;5054439;28;1133;-59
2022/09/19 04:55:09;;;;;;;;;;;;;;;7.81;67.56;95259.72;5054997;28;1016;-58
2022/09/19 04:57:35;;;;;;;;;;;;;;;7.92;67.62;95267.56;5053473;28;1248;-59
2022/09/19 05:00:03;;;;;;;;;;;;;;;8.00;67.09;95258.84;5034552;28;1286;-59
2022/09/19 05:02:30;;;;;;;;;;;;;;;8.10;66.77;95259.69;5034433;28;1019;-58
2022/09/19 05:04:56;;;;;;;;;;;;;;;8.19;67.61;95264.16;5034502;28;1084;-59
2022/09/19 05:07:28;;;;;;;;;;;;;;;8.25;67.46;95262.72;5034415;28;1984;-58
2022/09/19 05:09:54;;;;;;;;;;;;;;;8.17;67.44;95270.59;5034345;28;1190;-59
2022/09/19 05:12:20;;;;;;;;;;;;;;;8.39;67.53;95266.78;5034526;28;968;-58
2022/09/19 05:14:46;;;;;;;;;;;;;;;8.57;67.86;95270.41;5034180;28;1032;-59
2022/09/19 05:17:12;;;;;;;;;;;;;;;8.69;67.83;95271.06;5034252;28;1088;-59
2022/09/19 05:19:38;;;;;;;;;;;;;;;8.81;67.99;95262.88;5034397;28;1043;-59
2022/09/19 05:22:04;;;;;;;;;;;;;;;8.95;68.54;95265.03;5034446;28;1008;-59
2022/09/19 05:24:30;;;;;;;;;;;;;;;9.04;68.35;95266.81;5034211;28;1023;-59
2022/09/19 05:26:56;;;;;;;;;;;;;;;9.02;68.79;95266.13;5034155;28;1914;-58
2022/09/19 05:29:23;;;;;;;;;;;;;;;9.19;68.86;95259.13;5034089;28;1054;-58
2022/09/19 05:31:50;;;;;;;;;;;;;;;9.30;68.63;95264.28;5033427;28;1047;-59
2022/09/19 05:34:16;;;;;;;;;;;;;;;9.45;68.59;95275.25;5033872;28;1095;-59
2022/09/19 05:36:42;;;;;;;;;;;;;;;9.55;67.93;95269.84;5034152;28;1008;-59
2022/09/19 05:39:08;;;;;;;;;;;;;;;9.60;68.00;95280.94;5033987;28;999;-58
2022/09/19 05:41:35;;;;;;;;;;;;;;;9.69;67.84;95277.31;5033920;28;1103;-59
2022/09/19 05:44:01;;;;;;;;;;;;;;;9.67;68.14;95275.81;5033678;28;921;-59
2022/09/19 05:46:27;;;;;;;;;;;;;;;9.80;68.08;95276.25;5033728;28;1991;-59
2022/09/19 05:48:53;;;;;;;;;;;;;;;9.93;67.20;95278.53;5033506;28;1020;-59
2022/09/19 05:51:19;;;;;;;;;;;;;;;10.04;67.37;95282.81;5033971;28;1051;-58
2022/09/19 05:53:55;;;;;;;;;;;;;;;10.16;67.37;95279.72;5033401;28;1253;-59
2022/09/19 05:56:21;;;;;;;;;;;;;;;10.28;66.46;95279.47;5033866;28;1048;-59
2022/09/19 05:58:47;;;;;;;;;;;;;;;10.34;67.16;95269.03;5044070;28;1331;-58
2022/09/19 06:01:13;;;;;;;;;;;;;;;10.49;66.85;95274.66;5053417;28;1021;-58
2022/09/19 06:03:40;;;;;;;;;;;;;;;10.67;66.38;95271.06;5053221;28;1040;-58
2022/09/19 06:06:11;;;;;;;;;;;;;;;10.87;65.90;95271.66;5053653;28;972;-58
2022/09/19 06:08:41;;;;;;;;;;;;;;;10.97;66.06;95264.38;5053206;28;1906;-59
2022/09/19 06:11:07;;;;;;;;;;;;;;;11.02;65.13;95269.22;5053460;28;952;-59
2022/09/19 06:16:25;;;;;;;;;;;;;;;11.41;65.28;95268.72;5052301;28;1107;-59
2022/09/19 06:18:51;;;;;;;;;;;;;;;11.53;64.17;95270.91;5053178;28;1027;-58
2022/09/19 06:21:17;;;;;;;;;;;;;;;11.61;64.72;95274.59;5053424;28;957;-58
2022/09/19 06:23:43;;;;;;;;;;;;;;;11.66;64.57;95267.75;5053037;28;1036;-58
2022/09/19 06:26:11;;;;;;;;;;;;;;;11.79;65.06;95271.78;5053189;28;994;-58
2022/09/19 06:28:37;;;;;;;;;;;;;;;11.97;65.06;95271.66;5053316;28;1985;-58
2022/09/19 06:31:04;;;;;;;;;;;;;;;12.15;64.44;95280.38;5053180;28;1048;-58
2022/09/19 06:33:31;;;;;;;;;;;;;;;12.26;64.21;95269.31;5053284;28;995;-59
2022/09/19 06:35:59;;;;;;;;;;;;;;;12.42;63.12;95278.34;5053007;28;1075;-58
2022/09/19 06:38:25;;;;;;;;;;;;;;;12.49;63.51;95277.50;5053205;28;1033;-58
2022/09/19 06:40:51;;;;;;;;;;;;;;;12.58;64.64;95272.16;5052771;28;1087;-59
2022/09/19 06:43:17;;;;;;;;;;;;;;;12.72;64.39;95266.06;5057322;28;1028;-58
2022/09/19 06:45:44;;;;;;;;;;;;;;;12.83;64.76;95263.03;5057027;28;1033;-58
2022/09/19 06:48:10;;;;;;;;;;;;;;;13.02;64.55;95271.69;5057105;28;1985;-59
2022/09/19 06:50:36;;;;;;;;;;;;;;;13.09;64.27;95272.69;5056849;28;1044;-59
2022/09/19 06:53:02;;;;;;;;;;;;;;;13.13;64.69;95270.44;5056756;28;1117;-59
2022/09/19 06:55:29;;;;;;;;;;;;;;;13.23;64.36;95273.78;5056662;28;1081;-59
2022/09/19 06:57:56;;;;;;;;;;;;;;;13.26;64.96;95276.09;5053239;28;1295;-58
2022/09/19 07:00:24;;;;;;;;;;;;;;;13.39;64.21;95268.38;5036992;28;1225;-58
2022/09/19 07:02:53;;;;;;;;;;;;;;;13.57;64.11;95269.97;5036926;28;1040;-59
2022/09/19 07:05:19;;;;;;;;;;;;;;;13.75;63.47;95272.34;5036773;28;1134;-59
2022/09/19 07:07:45;;;;;;;;;;;;;;;13.89;63.18;95268.06;5036689;28;1983;-59
2022/09/19 07:10:11;;;;;;;;;;;;;;;14.05;62.66;95268.78;5036507;28;1024;-58
2022/09/19 07:12:37;;;;;;;;;;;;;;;14.31;62.05;95272.13;5036925;28;1020;-59
2022/09/19 07:15:03;;;;;;;;;;;;;;;14.58;60.69;95268.03;5036410;28;1013;-58
2022/09/19 07:17:29;;;;;;;;;;;;;;;14.83;59.54;95266.78;5036590;28;1024;-58
2022/09/19 07:19:55;;;;;;;;;;;;;;;15.02;59.29;95265.41;5036450;28;1067;-59
2022/09/19 07:22:22;;;;;;;;;;;;;;;15.29;57.71;95260.38;5036467;28;1087;-59
2022/09/19 07:24:49;;;;;;;;;;;;;;;15.55;57.51;95262.53;5036159;28;1035;-59
2022/09/19 07:27:15;;;;;;;;;;;;;;;16.17;56.77;95263.03;5036578;28;1983;-59
2022/09/19 07:29:41;;;;;;;;;;;;;;;16.71;52.72;95261.59;5036402;28;1039;-58
2022/09/19 07:32:08;;;;;;;;;;;;;;;18.03;49.42;95257.91;5036471;28;1044;-59
2022/09/19 07:34:35;;;;;;;;;;;;;;;19.27;46.95;95258.31;5036397;28;944;-59
2022/09/19 07:37:01;;;;;;;;;;;;;;;19.20;46.08;95250.22;5036002;28;1288;-59
2022/09/19 07:39:27;;;;;;;;;;;;;;;18.97;47.27;95248.00;5036189;28;1023;-59
2022/09/19 07:41:53;;;;;;;;;;;;;;;19.08;46.49;95251.91;5036170;28;1039;-59
2022/09/19 07:44:19;;;;;;;;;;;;;;;19.94;45.87;95248.09;5036366;28;1014;-59
2022/09/19 07:47:26;;;;;;;;;;;;;;;20.98;43.06;95256.75;5035712;28;1995;-59
2022/09/19 07:49:31;;;;;;;;;;;;;;;23.43;37.59;95273.72;5036014;28;1102;-59
2022/09/19 07:51:57;;;;;;;;;;;;;;;27.39;32.03;95292.28;5035684;28;1032;-59
2022/09/19 07:54:23;;;;;;;;;;;;;;;30.53;27.72;95316.44;5034745;28;1110;-59
2022/09/19 07:56:49;;;;;;;;;;;;;;;34.22;22.80;95339.84;5035812;28;1081;-60
2022/09/19 07:59:15;;;;;;;;;;;;;;;34.61;22.56;95332.94;5050614;28;1244;-60
2022/09/19 08:01:41;;;;;;;;;;;;;;;35.63;21.16;95339.28;5055573;28;980;-60
2022/09/19 08:04:07;;;;;;;;;;;;;;;34.39;22.06;95333.66;5054591;28;1056;-60
2022/09/19 08:06:33;;;;;;;;;;;;;;;32.74;23.70;95301.47;5055277;28;1919;-60
2022/09/19 08:08:59;;;;;;;;;;;;;;;34.93;22.04;95319.25;5055468;28;1025;-60
2022/09/19 08:11:25;;;;;;;;;;;;;;;37.93;18.73;95326.16;5055536;28;1287;-60
2022/09/19 08:13:51;;;;;;;;;;;;;;;38.63;17.83;95331.53;5055566;28;1028;-60
2022/09/19 08:16:18;;;;;;;;;;;;;;;39.43;17.87;95327.88;5055383;28;969;-57
2022/09/19 08:18:43;;;;;;;;;;;;;;;40.21;16.58;95332.75;5055452;28;957;-58
2022/09/19 08:21:10;;;;;;;;;;;;;;;40.31;16.64;95325.06;5055074;28;1080;-57
2022/09/19 08:23:36;;;;;;;;;;;;;;;40.18;16.98;95311.06;5055540;28;1028;-58
2022/09/19 08:26:04;;;;;;;;;;;;;;;40.32;16.52;95310.72;5054974;28;1033;-57
2022/09/19 08:28:30;;;;;;;;;;;;;;;39.85;17.31;95307.44;5055081;28;1959;-57
2022/09/19 08:31:00;;;;;;;;;;;;;;;39.52;16.98;95311.88;5055002;28;962;-58
2022/09/19 08:33:26;;;;;;;;;;;;;;;38.80;17.37;95302.69;5055125;28;1854;-58
2022/09/19 08:35:52;;;;;;;;;;;;;;;38.06;18.54;95288.06;5054819;28;988;-57
2022/09/19 08:38:18;;;;;;;;;;;;;;;38.14;18.70;95286.41;5055232;28;993;-57
2022/09/19 08:40:56;;;;;;;;;;;;;;;37.75;18.21;95277.94;5055054;28;1142;-57
2022/09/19 08:43:26;;;;;;;;;;;;;;;36.72;19.47;95263.69;5055087;28;974;-57
2022/09/19 08:45:52;;;;;;;;;;;;;;;35.79;20.17;95243.22;5054712;28;1024;-57
2022/09/19 08:48:20;;;;;;;;;;;;;;;35.25;20.68;95245.16;5054643;28;1910;-56
2022/09/19 08:50:51;;;;;;;;;;;;;;;34.89;20.71;95240.44;5055012;28;1098;-57
2022/09/19 08:56:42;;;;;;;;;;;;;;;32.29;23.27;95224.31;4674726;28;2052;-57
2022/09/19 08:59:11;;;;;;;;;;;;;;;29.54;26.70;95215.06;5041107;28;1264;-56
2022/09/19 09:01:38;;;;;;;;;;;;;;;26.75;28.98;95197.13;5034561;28;1036;-56
2022/09/19 09:04:13;;;;;;;;;;;;;;;24.73;32.60;95184.78;5034357;28;1028;-56
2022/09/19 09:06:57;;;;;;;;;;;;;;;23.41;35.35;95161.28;5034319;28;2001;-56
2022/09/19 09:09:33;;;;;;;;;;;;;;;22.61;35.89;95147.22;5034455;28;1000;-56
2022/09/19 09:12:02;;;;;;;;;;;;;;;21.99;37.69;95139.44;5034168;28;1032;-56
2022/09/19 09:14:29;;;;;;;;;;;;;;;21.68;38.61;95126.91;5034570;28;1149;-56
2022/09/19 09:17:10;;;;;;;;;;;;;;;21.49;38.64;95128.81;5034101;28;1044;-56
2022/09/19 09:19:39;;;;;;;;;;;;;;;21.17;39.78;95127.13;5034340;28;1086;-56
2022/09/19 09:22:24;;;;;;;;;;;;;;;21.10;39.81;95125.53;5034132;28;1119;-56
2022/09/19 09:24:57;;;;;;;;;;;;;;;20.99;40.14;95118.97;5034157;28;1042;-56
2022/09/19 09:27:27;;;;;;;;;;;;;;;20.91;39.73;95102.97;5034105;28;1985;-56
2022/09/19 09:29:57;;;;;;;;;;;;;;;20.90;40.28;95093.16;5034105;28;964;-56
2022/09/19 09:32:30;;;;;;;;;;;;;;;20.89;40.23;95096.91;5033911;28;980;-56
2022/09/19 09:34:58;;;;;;;;;;;;;;;20.84;40.62;95086.72;5034225;28;1003;-56
2022/09/19 09:37:43;;;;;;;;;;;;;;;20.72;40.83;95094.81;5034036;28;945;-56
2022/09/19 09:40:12;;;;;;;;;;;;;;;20.67;40.93;95091.94;5034050;28;1051;-56
2022/09/19 09:42:51;;;;;;;;;;;;;;;20.61;40.03;95096.38;5033765;28;1007;-56
2022/09/19 09:45:29;;;;;;;;;;;;;;;20.59;40.84;95090.31;5034148;28;984;-56
2022/09/19 09:48:06;;;;;;;;;;;;;;;20.62;40.65;95086.34;5033515;28;1995;-56
2022/09/19 09:50:51;;;;;;;;;;;;;;;20.65;41.21;95081.28;5033953;28;1043;-56
2022/09/19 09:53:32;;;;;;;;;;;;;;;20.60;40.00;95078.44;5033569;28;991;-56
2022/09/19 09:56:17;;;;;;;;;;;;;;;20.58;41.07;95077.81;5033495;28;1223;-56
2022/09/19 09:58:49;;;;;;;;;;;;;;;20.51;39.56;95084.34;5043574;28;1244;-56
2022/09/19 10:04:17;;;;;;;;;;;;;;;20.52;40.34;95061.56;5053593;28;948;-55
2022/09/19 10:06:59;;;;;;;;;;;;;;;20.62;40.21;95051.88;5053269;28;1914;-56
2022/09/19 10:09:29;;;;;;;;;;;;;;;20.63;40.44;95048.09;5053411;28;969;-56
2022/09/19 10:12:06;;;;;;;;;;;;;;;20.62;40.32;95051.03;5053259;28;1052;-56
2022/09/19 10:14:35;;;;;;;;;;;;;;;20.64;39.85;95054.34;5053531;28;1018;-56
2022/09/19 10:17:01;;;;;;;;;;;;;;;20.69;39.49;95053.69;5052612;28;1970;-56
2022/09/19 10:19:27;;;;;;;;;;;;;;;20.71;39.92;95046.97;5053114;28;918;-56
2022/09/19 10:21:54;;;;;;;;;;;;;;;20.72;40.17;95047.81;5053262;28;1037;-56
2022/09/19 10:24:39;;;;;;;;;;;;;;;20.80;40.63;95039.34;5053091;28;1045;-56
2022/09/19 10:27:11;;;;;;;;;;;;;;;20.79;40.79;95035.81;5053101;28;1987;-56
2022/09/19 10:29:58;;;;;;;;;;;;;;;20.78;40.82;95034.13;5053246;28;1029;-56
2022/09/19 10:32:25;;;;;;;;;;;;;;;20.84;40.58;95032.41;5053158;28;1282;-56
2022/09/19 10:34:51;;;;;;;;;;;;;;;20.84;40.45;95025.06;5052812;28;1029;-56
2022/09/19 10:37:26;;;;;;;;;;;;;;;20.83;40.71;95033.44;5053350;28;1138;-56
2022/09/19 10:39:57;;;;;;;;;;;;;;;20.83;40.17;95026.13;5052801;28;1005;-56
2022/09/19 10:42:34;;;;;;;;;;;;;;;20.85;40.15;95024.03;5053089;28;1033;-55
2022/09/19 10:45:02;;;;;;;;;;;;;;;20.81;40.14;95014.66;5052880;28;1028;-56
2022/09/19 10:47:28;;;;;;;;;;;;;;;20.82;40.10;95010.88;5052934;28;1910;-56
2022/09/19 10:49:59;;;;;;;;;;;;;;;20.84;39.92;95005.22;5053023;28;973;-56
2022/09/19 10:52:30;;;;;;;;;;;;;;;20.84;40.18;94997.88;5053196;28;976;-56
2022/09/19 10:55:00;;;;;;;;;;;;;;;20.91;40.28;94994.28;5052709;28;1122;-56
2022/09/19 10:57:40;;;;;;;;;;;;;;;20.90;39.26;94987.16;5052914;28;1072;-56
2022/09/19 11:00:26;;;;;;;;;;;;;;;20.82;38.55;94994.56;5032860;28;977;-56
2022/09/19 11:03:16;;;;;;;;;;;;;;;20.88;39.10;94986.56;5032782;28;1086;-56
2022/09/19 11:05:42;;;;;;;;;;;;;;;20.94;38.93;94981.03;5033074;28;978;-56
2022/09/19 11:08:24;;;;;;;;;;;;;;;20.97;39.90;94979.75;5032726;28;1945;-56
2022/09/19 11:10:51;;;;;;;;;;;;;;;20.96;39.25;94973.50;5033279;28;950;-56
2022/09/19 11:13:22;;;;;;;;;;;;;;;20.92;39.78;94968.75;5032958;28;930;-56
2022/09/19 11:15:49;;;;;;;;;;;;;;;20.91;39.69;94964.38;5033046;28;1130;-56
2022/09/19 11:18:26;;;;;;;;;;;;;;;20.92;38.52;94969.56;5032854;28;1038;-56
2022/09/19 11:20:52;;;;;;;;;;;;;;;20.93;38.95;94962.25;5032823;28;1004;-56
2022/09/19 11:23:28;;;;;;;;;;;;;;;20.99;39.94;94967.59;5032873;28;964;-56
2022/09/19 11:26:10;;;;;;;;;;;;;;;21.04;39.71;94965.03;5032900;28;1033;-55
2022/09/19 11:28:36;;;;;;;;;;;;;;;21.05;38.53;94971.28;5035093;28;1902;-56
2022/09/19 11:31:05;;;;;;;;;;;;;;;21.02;39.03;94956.28;5036366;28;969;-56
2022/09/19 11:33:43;;;;;;;;;;;;;;;21.03;37.27;94967.97;5036240;28;1023;-56
2022/09/19 11:36:25;;;;;;;;;;;;;;;21.00;37.38;94957.53;5036449;28;976;-56
2022/09/19 11:38:51;;;;;;;;;;;;;;;21.03;38.45;94954.38;5036466;28;1061;-56
2022/09/19 11:41:17;;;;;;;;;;;;;;;21.00;37.38;94952.97;5036260;28;1043;-56
2022/09/19 11:44:02;;;;;;;;;;;;;;;20.98;37.98;94951.50;5036041;28;1042;-55
2022/09/19 11:46:31;;;;;;;;;;;;;;;20.98;37.93;94948.78;5036311;28;1034;-56
2022/09/19 11:48:58;;;;;;;;;;;;;;;20.98;37.55;94940.63;5035884;28;1907;-56
2022/09/19 11:51:26;;;;;;;;;;;;;;;21.02;36.76;94933.72;5036038;28;1065;-56
2022/09/19 11:53:52;;;;;;;;;;;;;;;21.04;37.40;94934.31;5035873;28;1047;-56
2022/09/19 11:56:24;;;;;;;;;;;;;;;21.06;37.72;94935.72;5035713;28;1104;-56
2022/09/19 11:58:54;;;;;;;;;;;;;;;21.05;36.14;94931.34;5047252;28;1285;-56
2022/09/19 12:01:26;;;;;;;;;;;;;;;21.03;38.08;94922.59;5055804;28;942;-56
2022/09/19 12:04:07;;;;;;;;;;;;;;;21.06;37.31;94927.56;5055767;28;1048;-56
2022/09/19 12:06:52;;;;;;;;;;;;;;;21.08;35.84;94926.50;5055718;28;956;-56
2022/09/19 12:09:25;;;;;;;;;;;;;;;21.06;37.10;94915.88;5055387;28;1472;-56
2022/09/19 12:11:56;;;;;;;;;;;;;;;21.00;36.14;94920.34;5055678;28;962;-56
2022/09/19 12:14:28;;;;;;;;;;;;;;;21.04;36.16;94907.94;5055520;28;980;-56
2022/09/19 12:16:57;;;;;;;;;;;;;;;21.08;35.59;94912.91;5055502;28;937;-56
2022/09/19 12:19:33;;;;;;;;;;;;;;;21.08;35.58;94904.75;5055275;28;1027;-56
2022/09/19 12:22:19;;;;;;;;;;;;;;;21.09;35.80;94903.69;5055549;28;964;-56
2022/09/19 12:25:06;;;;;;;;;;;;;;;21.14;37.43;94890.25;5054963;28;1428;-56
2022/09/19 12:27:54;;;;;;;;;;;;;;;21.15;36.48;94887.28;5055190;28;2068;-56
2022/09/19 12:30:22;;;;;;;;;;;;;;;21.13;36.71;94891.28;5055249;28;1052;-56
2022/09/19 12:33:06;;;;;;;;;;;;;;;21.13;37.11;94897.53;5055135;28;1020;-56
2022/09/19 12:35:36;;;;;;;;;;;;;;;21.14;37.12;94898.41;5055128;28;948;-56
2022/09/19 12:38:02;;;;;;;;;;;;;;;21.18;35.66;94897.69;5055096;28;941;-56
2022/09/19 12:40:47;;;;;;;;;;;;;;;21.20;37.11;94881.97;5054302;28;1047;-56
2022/09/19 12:43:13;;;;;;;;;;;;;;;21.15;37.42;94889.16;5055213;28;1032;-55
2022/09/19 12:45:57;;;;;;;;;;;;;;;21.15;35.88;94884.59;5054913;28;1023;-56
2022/09/19 12:48:33;;;;;;;;;;;;;;;21.16;36.90;94879.97;5054938;28;1985;-56
2022/09/19 12:51:02;;;;;;;;;;;;;;;21.15;36.88;94878.28;5054530;28;933;-56
2022/09/19 12:53:28;;;;;;;;;;;;;;;21.14;37.18;94866.59;5054969;28;1000;-56
2022/09/19 12:56:06;;;;;;;;;;;;;;;21.15;35.94;94870.13;5054446;28;1328;-56
2022/09/19 12:58:39;;;;;;;;;;;;;;;21.11;36.95;94867.06;5045926;28;1420;-56
2022/09/19 13:01:22;;;;;;;;;;;;;;;21.11;36.76;94867.06;5034536;28;1095;-56
2022/09/19 13:04:09;;;;;;;;;;;;;;;21.12;37.48;94863.28;5034876;28;1040;-56
2022/09/19 13:06:36;;;;;;;;;;;;;;;21.17;37.58;94859.84;5034358;28;1311;-56
2022/09/19 13:09:05;;;;;;;;;;;;;;;21.18;35.02;94862.34;5034529;28;1899;-56
2022/09/19 13:11:37;;;;;;;;;;;;;;;21.24;37.33;94866.84;5034348;28;1083;-56
2022/09/19 13:14:03;;;;;;;;;;;;;;;21.23;36.33;94870.63;5034373;28;1036;-56
2022/09/19 13:16:31;;;;;;;;;;;;;;;21.26;37.75;94859.28;5034487;28;958;-56
2022/09/19 13:24:35;;;;;;;;;;;;;;;21.19;36.91;94863.16;5034239;28;995;-56
2022/09/19 13:27:04;;;;;;;;;;;;;;;21.17;37.62;94859.84;5034127;28;2023;-56
2022/09/19 13:29:31;;;;;;;;;;;;;;;21.15;37.60;94853.81;5034383;28;983;-56
2022/09/19 13:31:59;;;;;;;;;;;;;;;21.13;37.21;94855.97;5033864;28;1098;-56
2022/09/19 13:34:35;;;;;;;;;;;;;;;21.11;37.90;94848.03;5034182;28;1098;-56
2022/09/19 13:37:06;;;;;;;;;;;;;;;21.12;37.90;94854.31;5033790;28;1007;-56